Dahlen, ND (58224)

1:26 PM CST on February 06, 2016 (GMT -0600)
Rural | | Change Station
CLOSE
Current Station
Personal Weather Station
Location: Forest River, ND
Elevation: 869 ft
Nearby Weather Stations
Active Advisory: Blizzard Watch

Elev 869 ft 48.18 °N, 97.47 °W | Updated 15 seconds ago

Partly Cloudy
Partly Cloudy
35.8 °F
Feels Like 36 °F
N
2.9
Wind Variable Wind from ENE
Gusts 4.9 mph

Today
High -- | Low -- °F
--% Chance of Precip.
Yesterday
High -- | Low -- °F
Precip. -- in
Pressure 29.72 in
Visibility 10.0 miles
Clouds Few 12000 ft
Windchill 36 °F
Dew Point 26 °F
Humidity 68%
Rainfall 0.00 in
Snow Depth Not available.
7:53 AM 5:38 PM
Waning Crescent, 4% visible
METAR KRDR 061858Z AUTO 21007KT 10SM FEW120 04/M02 A2967 RMK AO2 SLP064 T00351017
Pressure 29.72 in
Visibility 10.0 miles
Clouds Few 12000 ft
Windchill 36 °F
Dew Point 26 °F
Humidity 68%
Rainfall 0.00 in
Snow Depth Not available.
7:53 AM 5:38 PM
Waning Crescent, 4% visible
METAR KRDR 061858Z AUTO 21007KT 10SM FEW120 04/M02 A2967 RMK AO2 SLP064 T00351017

10-Day Weather Forecast

Almanac

Astronomy

Feb. 06, 2016 Rise Set
Actual Time
Civil Twilight
Nautical Twilight
Astronomical Twilight
Moon
Length of Visible Light
Length of Day
Tomorrow will be .
, % of the Moon is Illuminated

Today's Extremes

State Highs State Lows

Community

WunderPhotos

Upload Photos

1,891,036 photos uploaded!

WunderBlog® & News

Nearby

Air Quality

  Air Quality AQ Index Pollutant
Not available.

Snow Depth

Station Depth Elevation

Earthquake Activity

City Distance Mag. Time & Date
Minimum magnitude displayed is 2.5.

Coastal Water Temperatures

Place Temperature

Stations

Nearby Weather Stations

Station Location Temp. Windchill Dew Point Humidity Wind Precip. Elev Updated Type
                   

Watches & Warnings

Blizzard Watch
Issued: 4:08 AM CST Feb. 6, 2016 – National Weather Service

... Blizzard watch remains in effect from late tonight through
late Sunday night...

* timing... blizzard conditions are possible from late tonight
through late Sunday night.

* Winds / visibilities... winds gusting as high as 60 mph could
cause whiteout conditions in blowing snow. Significant
drifting of the snow is likely... especially in open areas.

* Snow accumulations... total snow accumulations of 1 to 3 inches
are possible.

* Impacts... travel could be very difficult to impossible.

Precautionary/preparedness actions...

A blizzard watch means there is a potential for falling and/or
blowing snow with strong winds and extremely poor visibilities.
This can lead to whiteout conditions and make travel very
dangerous.